sensor_id;sensor_type;location;lat;lon;timestamp;P1;durP1;ratioP1;P2;durP2;ratioP2
37409;SDS011;23275;48.914;12.566;2022-07-04T00:00:23;3.30;;;1.00;;
37409;SDS011;23275;48.914;12.566;2022-07-04T00:02:49;2.60;;;1.20;;
37409;SDS011;23275;48.914;12.566;2022-07-04T00:05:15;4.00;;;1.05;;
37409;SDS011;23275;48.914;12.566;2022-07-04T00:07:43;2.42;;;1.00;;
37409;SDS011;23275;48.914;12.566;2022-07-04T00:10:10;1.90;;;1.13;;
37409;SDS011;23275;48.914;12.566;2022-07-04T00:12:38;3.13;;;1.10;;
37409;SDS011;23275;48.914;12.566;2022-07-04T00:15:04;3.85;;;1.15;;
37409;SDS011;23275;48.914;12.566;2022-07-04T00:17:30;5.45;;;1.20;;
37409;SDS011;23275;48.914;12.566;2022-07-04T00:19:56;2.85;;;1.15;;
37409;SDS011;23275;48.914;12.566;2022-07-04T00:22:22;1.95;;;1.00;;
37409;SDS011;23275;48.914;12.566;2022-07-04T00:24:48;3.42;;;1.10;;
37409;SDS011;23275;48.914;12.566;2022-07-04T00:27:13;1.95;;;1.20;;
37409;SDS011;23275;48.914;12.566;2022-07-04T00:29:39;2.20;;;0.90;;
37409;SDS011;23275;48.914;12.566;2022-07-04T00:32:05;3.05;;;1.00;;
37409;SDS011;23275;48.914;12.566;2022-07-04T00:34:31;4.00;;;0.95;;
37409;SDS011;23275;48.914;12.566;2022-07-04T00:36:56;2.22;;;1.10;;
37409;SDS011;23275;48.914;12.566;2022-07-04T00:39:22;3.88;;;1.27;;
37409;SDS011;23275;48.914;12.566;2022-07-04T00:41:47;2.85;;;0.90;;
37409;SDS011;23275;48.914;12.566;2022-07-04T00:44:13;2.30;;;1.02;;
37409;SDS011;23275;48.914;12.566;2022-07-04T00:46:43;5.43;;;1.00;;
37409;SDS011;23275;48.914;12.566;2022-07-04T00:49:09;2.47;;;1.38;;
37409;SDS011;23275;48.914;12.566;2022-07-04T00:51:39;2.30;;;1.30;;
37409;SDS011;23275;48.914;12.566;2022-07-04T00:56:35;3.33;;;1.05;;
37409;SDS011;23275;48.914;12.566;2022-07-04T00:59:02;2.42;;;1.17;;
37409;SDS011;23275;48.914;12.566;2022-07-04T01:01:27;1.80;;;1.13;;
37409;SDS011;23275;48.914;12.566;2022-07-04T01:03:53;4.13;;;1.38;;
37409;SDS011;23275;48.914;12.566;2022-07-04T01:06:19;4.85;;;1.35;;
37409;SDS011;23275;48.914;12.566;2022-07-04T01:08:45;3.38;;;1.27;;
37409;SDS011;23275;48.914;12.566;2022-07-04T01:11:11;2.17;;;1.20;;
37409;SDS011;23275;48.914;12.566;2022-07-04T01:13:38;2.72;;;1.23;;
37409;SDS011;23275;48.914;12.566;2022-07-04T01:16:06;4.10;;;1.30;;
37409;SDS011;23275;48.914;12.566;2022-07-04T01:18:32;4.10;;;1.25;;
37409;SDS011;23275;48.914;12.566;2022-07-04T01:20:58;3.22;;;1.05;;
37409;SDS011;23275;48.914;12.566;2022-07-04T01:23:23;2.08;;;1.08;;
37409;SDS011;23275;48.914;12.566;2022-07-04T01:25:49;4.85;;;1.10;;
37409;SDS011;23275;48.914;12.566;2022-07-04T01:28:15;2.65;;;1.25;;
37409;SDS011;23275;48.914;12.566;2022-07-04T01:30:42;1.45;;;0.90;;
37409;SDS011;23275;48.914;12.566;2022-07-04T01:33:08;4.15;;;1.10;;
37409;SDS011;23275;48.914;12.566;2022-07-04T01:35:34;2.38;;;1.10;;
37409;SDS011;23275;48.914;12.566;2022-07-04T01:37:59;3.05;;;1.20;;
37409;SDS011;23275;48.914;12.566;2022-07-04T01:40:25;2.78;;;1.05;;
37409;SDS011;23275;48.914;12.566;2022-07-04T01:42:50;4.68;;;1.40;;
37409;SDS011;23275;48.914;12.566;2022-07-04T01:45:16;4.47;;;1.10;;
37409;SDS011;23275;48.914;12.566;2022-07-04T01:47:42;3.88;;;1.10;;
37409;SDS011;23275;48.914;12.566;2022-07-04T01:50:08;2.00;;;1.08;;
37409;SDS011;23275;48.914;12.566;2022-07-04T01:52:37;3.70;;;1.27;;
37409;SDS011;23275;48.914;12.566;2022-07-04T01:55:03;2.75;;;1.20;;
37409;SDS011;23275;48.914;12.566;2022-07-04T01:57:29;3.97;;;1.00;;
37409;SDS011;23275;48.914;12.566;2022-07-04T01:59:54;3.67;;;1.17;;
37409;SDS011;23275;48.914;12.566;2022-07-04T02:02:38;1.95;;;1.00;;
37409;SDS011;23275;48.914;12.566;2022-07-04T02:05:04;3.45;;;1.20;;
37409;SDS011;23275;48.914;12.566;2022-07-04T02:07:30;2.70;;;0.90;;
37409;SDS011;23275;48.914;12.566;2022-07-04T02:09:55;1.80;;;1.05;;
37409;SDS011;23275;48.914;12.566;2022-07-04T02:12:21;2.58;;;1.45;;
37409;SDS011;23275;48.914;12.566;2022-07-04T02:15:05;4.03;;;1.48;;
37409;SDS011;23275;48.914;12.566;2022-07-04T02:17:31;4.55;;;1.15;;
37409;SDS011;23275;48.914;12.566;2022-07-04T02:19:57;6.13;;;1.25;;
37409;SDS011;23275;48.914;12.566;2022-07-04T02:22:23;2.83;;;1.33;;
37409;SDS011;23275;48.914;12.566;2022-07-04T02:24:48;2.17;;;1.10;;
37409;SDS011;23275;48.914;12.566;2022-07-04T02:27:14;3.60;;;1.00;;
37409;SDS011;23275;48.914;12.566;2022-07-04T02:29:40;1.95;;;1.15;;
37409;SDS011;23275;48.914;12.566;2022-07-04T02:32:05;2.88;;;1.50;;
37409;SDS011;23275;48.914;12.566;2022-07-04T02:34:31;2.85;;;1.10;;
37409;SDS011;23275;48.914;12.566;2022-07-04T02:36:57;3.20;;;1.35;;
37409;SDS011;23275;48.914;12.566;2022-07-04T02:39:23;4.82;;;1.48;;
37409;SDS011;23275;48.914;12.566;2022-07-04T02:41:49;3.05;;;1.20;;
37409;SDS011;23275;48.914;12.566;2022-07-04T02:44:14;2.13;;;1.08;;
37409;SDS011;23275;48.914;12.566;2022-07-04T02:46:40;2.97;;;1.20;;
37409;SDS011;23275;48.914;12.566;2022-07-04T02:49:06;4.90;;;1.30;;
37409;SDS011;23275;48.914;12.566;2022-07-04T02:51:31;5.78;;;1.58;;
37409;SDS011;23275;48.914;12.566;2022-07-04T02:53:57;4.75;;;1.20;;
37409;SDS011;23275;48.914;12.566;2022-07-04T02:56:23;4.32;;;1.55;;
37409;SDS011;23275;48.914;12.566;2022-07-04T02:58:49;2.33;;;1.35;;
37409;SDS011;23275;48.914;12.566;2022-07-04T03:01:14;2.05;;;1.33;;
37409;SDS011;23275;48.914;12.566;2022-07-04T03:03:41;2.78;;;1.23;;
37409;SDS011;23275;48.914;12.566;2022-07-04T03:06:07;2.10;;;1.50;;
37409;SDS011;23275;48.914;12.566;2022-07-04T03:08:33;3.60;;;1.42;;
37409;SDS011;23275;48.914;12.566;2022-07-04T03:11:00;3.15;;;1.00;;
37409;SDS011;23275;48.914;12.566;2022-07-04T03:13:26;4.10;;;1.27;;
37409;SDS011;23275;48.914;12.566;2022-07-04T03:15:52;3.03;;;1.15;;
37409;SDS011;23275;48.914;12.566;2022-07-04T03:18:17;4.13;;;1.42;;
37409;SDS011;23275;48.914;12.566;2022-07-04T03:20:44;3.42;;;1.48;;
37409;SDS011;23275;48.914;12.566;2022-07-04T03:23:09;3.58;;;1.65;;
37409;SDS011;23275;48.914;12.566;2022-07-04T03:25:35;6.28;;;1.90;;
37409;SDS011;23275;48.914;12.566;2022-07-04T03:28:01;4.18;;;1.88;;
37409;SDS011;23275;48.914;12.566;2022-07-04T03:30:26;5.75;;;1.48;;
37409;SDS011;23275;48.914;12.566;2022-07-04T03:32:52;3.92;;;1.48;;
37409;SDS011;23275;48.914;12.566;2022-07-04T03:35:18;4.40;;;1.42;;
37409;SDS011;23275;48.914;12.566;2022-07-04T03:37:44;4.28;;;1.80;;
37409;SDS011;23275;48.914;12.566;2022-07-04T03:40:10;3.08;;;1.55;;
37409;SDS011;23275;48.914;12.566;2022-07-04T03:42:36;3.13;;;1.60;;
37409;SDS011;23275;48.914;12.566;2022-07-04T03:45:02;6.68;;;2.00;;
37409;SDS011;23275;48.914;12.566;2022-07-04T03:47:28;3.00;;;1.42;;
37409;SDS011;23275;48.914;12.566;2022-07-04T03:49:54;4.28;;;1.48;;
37409;SDS011;23275;48.914;12.566;2022-07-04T03:52:19;3.30;;;1.77;;
37409;SDS011;23275;48.914;12.566;2022-07-04T03:54:45;6.22;;;1.73;;
37409;SDS011;23275;48.914;12.566;2022-07-04T03:57:10;8.45;;;1.95;;
37409;SDS011;23275;48.914;12.566;2022-07-04T03:59:36;3.85;;;1.38;;
37409;SDS011;23275;48.914;12.566;2022-07-04T04:02:02;3.50;;;1.90;;
37409;SDS011;23275;48.914;12.566;2022-07-04T04:04:27;4.35;;;1.45;;
37409;SDS011;23275;48.914;12.566;2022-07-04T04:07:12;5.55;;;2.10;;
37409;SDS011;23275;48.914;12.566;2022-07-04T04:09:37;3.75;;;1.50;;
37409;SDS011;23275;48.914;12.566;2022-07-04T04:12:03;6.95;;;1.77;;
37409;SDS011;23275;48.914;12.566;2022-07-04T04:14:31;8.30;;;2.03;;
37409;SDS011;23275;48.914;12.566;2022-07-04T04:16:57;4.82;;;1.95;;
37409;SDS011;23275;48.914;12.566;2022-07-04T04:19:22;4.07;;;1.50;;
37409;SDS011;23275;48.914;12.566;2022-07-04T04:21:48;4.18;;;1.60;;
37409;SDS011;23275;48.914;12.566;2022-07-04T04:24:14;8.23;;;1.60;;
37409;SDS011;23275;48.914;12.566;2022-07-04T04:26:39;6.10;;;1.77;;
37409;SDS011;23275;48.914;12.566;2022-07-04T04:29:05;5.43;;;1.77;;
37409;SDS011;23275;48.914;12.566;2022-07-04T04:31:30;5.50;;;1.85;;
37409;SDS011;23275;48.914;12.566;2022-07-04T04:33:56;7.78;;;2.03;;
37409;SDS011;23275;48.914;12.566;2022-07-04T04:36:22;5.68;;;1.85;;
37409;SDS011;23275;48.914;12.566;2022-07-04T04:38:48;5.38;;;1.70;;
37409;SDS011;23275;48.914;12.566;2022-07-04T04:41:13;8.18;;;2.00;;
37409;SDS011;23275;48.914;12.566;2022-07-04T04:43:41;3.92;;;1.65;;
37409;SDS011;23275;48.914;12.566;2022-07-04T04:46:07;10.38;;;2.30;;
37409;SDS011;23275;48.914;12.566;2022-07-04T04:48:32;4.43;;;1.80;;
37409;SDS011;23275;48.914;12.566;2022-07-04T04:50:58;5.20;;;2.08;;
37409;SDS011;23275;48.914;12.566;2022-07-04T04:53:23;4.43;;;1.92;;
37409;SDS011;23275;48.914;12.566;2022-07-04T04:55:51;2.95;;;1.45;;
37409;SDS011;23275;48.914;12.566;2022-07-04T04:58:17;2.92;;;1.98;;
37409;SDS011;23275;48.914;12.566;2022-07-04T05:00:43;6.45;;;1.58;;
37409;SDS011;23275;48.914;12.566;2022-07-04T05:03:08;3.83;;;1.60;;
37409;SDS011;23275;48.914;12.566;2022-07-04T05:05:34;7.00;;;1.85;;
37409;SDS011;23275;48.914;12.566;2022-07-04T05:07:59;4.20;;;1.80;;
37409;SDS011;23275;48.914;12.566;2022-07-04T05:10:25;3.38;;;1.45;;
37409;SDS011;23275;48.914;12.566;2022-07-04T05:12:51;3.33;;;1.70;;
37409;SDS011;23275;48.914;12.566;2022-07-04T05:15:17;3.50;;;1.70;;
37409;SDS011;23275;48.914;12.566;2022-07-04T05:17:42;4.47;;;1.42;;
37409;SDS011;23275;48.914;12.566;2022-07-04T05:20:15;4.20;;;1.50;;
37409;SDS011;23275;48.914;12.566;2022-07-04T05:22:41;3.40;;;1.42;;
37409;SDS011;23275;48.914;12.566;2022-07-04T05:25:06;6.85;;;1.83;;
37409;SDS011;23275;48.914;12.566;2022-07-04T05:27:32;4.70;;;1.60;;
37409;SDS011;23275;48.914;12.566;2022-07-04T05:29:58;5.32;;;1.52;;
37409;SDS011;23275;48.914;12.566;2022-07-04T05:32:24;7.18;;;1.60;;
37409;SDS011;23275;48.914;12.566;2022-07-04T05:34:50;5.55;;;1.55;;
37409;SDS011;23275;48.914;12.566;2022-07-04T05:37:17;3.28;;;1.67;;
37409;SDS011;23275;48.914;12.566;2022-07-04T05:39:43;5.20;;;1.65;;
37409;SDS011;23275;48.914;12.566;2022-07-04T05:42:08;3.00;;;1.50;;
37409;SDS011;23275;48.914;12.566;2022-07-04T05:44:34;5.10;;;1.60;;
37409;SDS011;23275;48.914;12.566;2022-07-04T05:46:59;3.97;;;1.80;;
37409;SDS011;23275;48.914;12.566;2022-07-04T05:49:25;5.53;;;1.90;;
37409;SDS011;23275;48.914;12.566;2022-07-04T05:51:51;3.92;;;1.65;;
37409;SDS011;23275;48.914;12.566;2022-07-04T05:54:16;4.22;;;2.25;;
37409;SDS011;23275;48.914;12.566;2022-07-04T05:56:42;5.35;;;1.70;;
37409;SDS011;23275;48.914;12.566;2022-07-04T05:59:08;7.53;;;1.98;;
37409;SDS011;23275;48.914;12.566;2022-07-04T06:01:35;5.63;;;2.45;;
37409;SDS011;23275;48.914;12.566;2022-07-04T06:04:02;3.67;;;2.17;;
37409;SDS011;23275;48.914;12.566;2022-07-04T06:06:28;7.50;;;2.05;;
37409;SDS011;23275;48.914;12.566;2022-07-04T06:08:54;5.45;;;2.22;;
37409;SDS011;23275;48.914;12.566;2022-07-04T06:11:20;4.47;;;2.05;;
37409;SDS011;23275;48.914;12.566;2022-07-04T06:13:46;4.85;;;2.47;;
37409;SDS011;23275;48.914;12.566;2022-07-04T06:16:12;3.30;;;1.98;;
37409;SDS011;23275;48.914;12.566;2022-07-04T06:18:38;4.50;;;1.77;;
37409;SDS011;23275;48.914;12.566;2022-07-04T06:21:03;5.10;;;2.40;;
37409;SDS011;23275;48.914;12.566;2022-07-04T06:23:29;4.45;;;2.30;;
37409;SDS011;23275;48.914;12.566;2022-07-04T06:25:55;6.35;;;2.42;;
37409;SDS011;23275;48.914;12.566;2022-07-04T06:28:21;5.47;;;2.50;;
37409;SDS011;23275;48.914;12.566;2022-07-04T06:30:46;4.82;;;2.83;;
37409;SDS011;23275;48.914;12.566;2022-07-04T06:33:12;3.47;;;2.28;;
37409;SDS011;23275;48.914;12.566;2022-07-04T06:35:38;5.43;;;2.25;;
37409;SDS011;23275;48.914;12.566;2022-07-04T06:38:27;4.13;;;2.08;;
37409;SDS011;23275;48.914;12.566;2022-07-04T06:40:55;5.50;;;3.00;;
37409;SDS011;23275;48.914;12.566;2022-07-04T06:43:23;4.15;;;2.45;;
37409;SDS011;23275;48.914;12.566;2022-07-04T06:45:49;4.82;;;2.50;;
37409;SDS011;23275;48.914;12.566;2022-07-04T06:48:16;7.00;;;2.38;;
37409;SDS011;23275;48.914;12.566;2022-07-04T06:50:42;5.97;;;2.10;;
37409;SDS011;23275;48.914;12.566;2022-07-04T06:53:09;4.72;;;2.25;;
37409;SDS011;23275;48.914;12.566;2022-07-04T06:55:38;8.50;;;2.60;;
37409;SDS011;23275;48.914;12.566;2022-07-04T06:58:05;4.30;;;2.30;;
37409;SDS011;23275;48.914;12.566;2022-07-04T07:00:32;4.85;;;2.22;;
37409;SDS011;23275;48.914;12.566;2022-07-04T07:02:59;8.48;;;2.45;;
37409;SDS011;23275;48.914;12.566;2022-07-04T07:05:25;4.30;;;2.22;;
37409;SDS011;23275;48.914;12.566;2022-07-04T07:07:51;3.63;;;1.90;;
37409;SDS011;23275;48.914;12.566;2022-07-04T07:10:17;4.82;;;2.35;;
37409;SDS011;23275;48.914;12.566;2022-07-04T07:12:43;5.47;;;2.28;;
37409;SDS011;23275;48.914;12.566;2022-07-04T07:15:08;4.50;;;1.70;;
37409;SDS011;23275;48.914;12.566;2022-07-04T07:17:34;3.30;;;2.10;;
37409;SDS011;23275;48.914;12.566;2022-07-04T07:20:00;3.55;;;1.77;;
37409;SDS011;23275;48.914;12.566;2022-07-04T07:22:26;3.65;;;1.90;;
37409;SDS011;23275;48.914;12.566;2022-07-04T07:24:52;4.00;;;1.77;;
37409;SDS011;23275;48.914;12.566;2022-07-04T07:27:17;3.83;;;1.90;;
37409;SDS011;23275;48.914;12.566;2022-07-04T07:29:43;6.20;;;1.70;;
37409;SDS011;23275;48.914;12.566;2022-07-04T07:32:08;4.15;;;1.90;;
37409;SDS011;23275;48.914;12.566;2022-07-04T07:34:34;4.45;;;1.70;;
37409;SDS011;23275;48.914;12.566;2022-07-04T07:37:00;4.60;;;1.88;;
37409;SDS011;23275;48.914;12.566;2022-07-04T07:39:26;4.15;;;1.70;;
37409;SDS011;23275;48.914;12.566;2022-07-04T07:41:51;7.00;;;1.92;;
37409;SDS011;23275;48.914;12.566;2022-07-04T07:44:17;4.82;;;1.88;;
37409;SDS011;23275;48.914;12.566;2022-07-04T07:46:43;5.53;;;1.63;;
37409;SDS011;23275;48.914;12.566;2022-07-04T07:49:08;3.22;;;1.75;;
37409;SDS011;23275;48.914;12.566;2022-07-04T07:51:34;3.78;;;1.70;;
37409;SDS011;23275;48.914;12.566;2022-07-04T07:54:00;3.17;;;1.63;;
37409;SDS011;23275;48.914;12.566;2022-07-04T07:56:26;3.25;;;1.50;;
37409;SDS011;23275;48.914;12.566;2022-07-04T07:58:52;5.25;;;1.67;;
37409;SDS011;23275;48.914;12.566;2022-07-04T08:01:18;4.28;;;1.80;;
37409;SDS011;23275;48.914;12.566;2022-07-04T08:03:45;3.65;;;1.50;;
37409;SDS011;23275;48.914;12.566;2022-07-04T08:06:29;2.70;;;1.58;;
37409;SDS011;23275;48.914;12.566;2022-07-04T08:08:55;5.57;;;1.95;;
37409;SDS011;23275;48.914;12.566;2022-07-04T08:11:21;5.57;;;1.95;;
37409;SDS011;23275;48.914;12.566;2022-07-04T08:13:47;5.97;;;1.80;;
37409;SDS011;23275;48.914;12.566;2022-07-04T08:16:12;3.22;;;1.30;;
37409;SDS011;23275;48.914;12.566;2022-07-04T08:18:38;4.28;;;1.80;;
37409;SDS011;23275;48.914;12.566;2022-07-04T08:21:04;3.85;;;1.95;;
37409;SDS011;23275;48.914;12.566;2022-07-04T08:23:31;3.70;;;1.77;;
37409;SDS011;23275;48.914;12.566;2022-07-04T08:25:58;3.17;;;1.80;;
37409;SDS011;23275;48.914;12.566;2022-07-04T08:28:24;5.25;;;1.58;;
37409;SDS011;23275;48.914;12.566;2022-07-04T08:30:50;4.43;;;1.52;;
37409;SDS011;23275;48.914;12.566;2022-07-04T08:33:16;5.85;;;2.30;;
37409;SDS011;23275;48.914;12.566;2022-07-04T08:35:42;3.35;;;1.70;;
37409;SDS011;23275;48.914;12.566;2022-07-04T08:38:08;2.72;;;1.55;;
37409;SDS011;23275;48.914;12.566;2022-07-04T08:40:34;2.20;;;1.35;;
37409;SDS011;23275;48.914;12.566;2022-07-04T08:43:00;4.53;;;1.60;;
37409;SDS011;23275;48.914;12.566;2022-07-04T08:45:31;3.78;;;1.92;;
37409;SDS011;23275;48.914;12.566;2022-07-04T08:50:32;2.65;;;1.45;;
37409;SDS011;23275;48.914;12.566;2022-07-04T08:53:00;9.55;;;2.00;;
37409;SDS011;23275;48.914;12.566;2022-07-04T08:55:34;3.15;;;1.73;;
37409;SDS011;23275;48.914;12.566;2022-07-04T08:58:19;6.63;;;2.22;;
37409;SDS011;23275;48.914;12.566;2022-07-04T09:00:54;4.38;;;1.52;;
37409;SDS011;23275;48.914;12.566;2022-07-04T09:03:21;4.22;;;1.70;;
37409;SDS011;23275;48.914;12.566;2022-07-04T09:05:48;2.92;;;1.60;;
37409;SDS011;23275;48.914;12.566;2022-07-04T09:08:14;4.35;;;1.70;;
37409;SDS011;23275;48.914;12.566;2022-07-04T09:10:40;3.33;;;1.33;;
37409;SDS011;23275;48.914;12.566;2022-07-04T09:13:06;3.45;;;1.60;;
37409;SDS011;23275;48.914;12.566;2022-07-04T09:15:33;5.43;;;1.63;;
37409;SDS011;23275;48.914;12.566;2022-07-04T09:18:02;2.72;;;1.33;;
37409;SDS011;23275;48.914;12.566;2022-07-04T09:20:30;5.18;;;1.88;;
37409;SDS011;23275;48.914;12.566;2022-07-04T09:22:56;4.32;;;1.80;;
37409;SDS011;23275;48.914;12.566;2022-07-04T09:25:23;3.35;;;1.70;;
37409;SDS011;23275;48.914;12.566;2022-07-04T09:27:53;2.85;;;1.40;;
37409;SDS011;23275;48.914;12.566;2022-07-04T09:30:25;4.70;;;1.98;;
37409;SDS011;23275;48.914;12.566;2022-07-04T09:32:52;3.63;;;1.70;;
37409;SDS011;23275;48.914;12.566;2022-07-04T09:35:25;4.57;;;1.98;;
37409;SDS011;23275;48.914;12.566;2022-07-04T09:38:15;6.45;;;1.67;;
37409;SDS011;23275;48.914;12.566;2022-07-04T09:40:45;6.93;;;1.45;;
37409;SDS011;23275;48.914;12.566;2022-07-04T09:43:36;4.07;;;1.60;;
37409;SDS011;23275;48.914;12.566;2022-07-04T09:46:02;4.68;;;1.50;;
37409;SDS011;23275;48.914;12.566;2022-07-04T09:49:00;2.42;;;1.17;;
37409;SDS011;23275;48.914;12.566;2022-07-04T09:51:34;5.35;;;1.48;;
37409;SDS011;23275;48.914;12.566;2022-07-04T09:56:50;3.67;;;1.60;;
37409;SDS011;23275;48.914;12.566;2022-07-04T09:59:17;4.43;;;1.80;;
37409;SDS011;23275;48.914;12.566;2022-07-04T10:01:43;2.78;;;1.88;;
37409;SDS011;23275;48.914;12.566;2022-07-04T10:04:09;2.42;;;1.48;;
37409;SDS011;23275;48.914;12.566;2022-07-04T10:06:37;3.72;;;1.40;;
37409;SDS011;23275;48.914;12.566;2022-07-04T10:09:17;4.68;;;1.50;;
37409;SDS011;23275;48.914;12.566;2022-07-04T10:11:43;3.45;;;1.63;;
37409;SDS011;23275;48.914;12.566;2022-07-04T10:14:11;4.47;;;1.73;;
37409;SDS011;23275;48.914;12.566;2022-07-04T10:16:39;4.28;;;1.38;;
37409;SDS011;23275;48.914;12.566;2022-07-04T10:19:06;3.55;;;1.70;;
37409;SDS011;23275;48.914;12.566;2022-07-04T10:21:33;2.30;;;1.30;;
37409;SDS011;23275;48.914;12.566;2022-07-04T10:23:59;2.58;;;1.30;;
37409;SDS011;23275;48.914;12.566;2022-07-04T10:26:26;2.63;;;1.20;;
37409;SDS011;23275;48.914;12.566;2022-07-04T10:28:53;4.03;;;1.08;;
37409;SDS011;23275;48.914;12.566;2022-07-04T10:31:20;2.47;;;1.17;;
37409;SDS011;23275;48.914;12.566;2022-07-04T10:33:47;4.03;;;1.40;;
37409;SDS011;23275;48.914;12.566;2022-07-04T10:36:15;4.05;;;2.00;;
37409;SDS011;23275;48.914;12.566;2022-07-04T10:38:55;5.72;;;3.90;;
37409;SDS011;23275;48.914;12.566;2022-07-04T10:41:24;2.22;;;1.30;;
37409;SDS011;23275;48.914;12.566;2022-07-04T10:43:51;3.35;;;1.10;;
37409;SDS011;23275;48.914;12.566;2022-07-04T10:48:59;1.70;;;1.10;;
37409;SDS011;23275;48.914;12.566;2022-07-04T10:51:32;1.85;;;0.80;;
37409;SDS011;23275;48.914;12.566;2022-07-04T10:54:00;5.72;;;1.20;;
37409;SDS011;23275;48.914;12.566;2022-07-04T10:56:34;2.00;;;0.98;;
37409;SDS011;23275;48.914;12.566;2022-07-04T10:59:02;4.40;;;0.95;;
37409;SDS011;23275;48.914;12.566;2022-07-04T11:01:35;2.30;;;0.90;;
37409;SDS011;23275;48.914;12.566;2022-07-04T11:04:01;2.45;;;1.20;;
37409;SDS011;23275;48.914;12.566;2022-07-04T11:11:53;3.78;;;1.05;;
37409;SDS011;23275;48.914;12.566;2022-07-04T11:14:42;2.75;;;0.90;;
37409;SDS011;23275;48.914;12.566;2022-07-04T11:17:10;3.05;;;1.10;;
37409;SDS011;23275;48.914;12.566;2022-07-04T11:19:40;2.58;;;0.90;;
37409;SDS011;23275;48.914;12.566;2022-07-04T11:22:08;2.63;;;0.80;;
37409;SDS011;23275;48.914;12.566;2022-07-04T11:24:35;4.82;;;1.20;;
37409;SDS011;23275;48.914;12.566;2022-07-04T11:27:02;3.10;;;0.95;;
37409;SDS011;23275;48.914;12.566;2022-07-04T11:29:29;2.47;;;1.17;;
37409;SDS011;23275;48.914;12.566;2022-07-04T11:31:55;2.10;;;0.80;;
37409;SDS011;23275;48.914;12.566;2022-07-04T11:34:21;1.95;;;0.95;;
37409;SDS011;23275;48.914;12.566;2022-07-04T11:36:48;1.58;;;0.80;;
37409;SDS011;23275;48.914;12.566;2022-07-04T11:39:17;2.50;;;0.95;;
37409;SDS011;23275;48.914;12.566;2022-07-04T11:41:48;2.72;;;1.00;;
37409;SDS011;23275;48.914;12.566;2022-07-04T11:44:38;2.50;;;0.90;;
37409;SDS011;23275;48.914;12.566;2022-07-04T11:47:24;4.60;;;1.05;;
37409;SDS011;23275;48.914;12.566;2022-07-04T11:50:00;5.03;;;1.48;;
37409;SDS011;23275;48.914;12.566;2022-07-04T11:52:43;3.95;;;1.38;;
37409;SDS011;23275;48.914;12.566;2022-07-04T11:55:11;1.85;;;1.00;;
37409;SDS011;23275;48.914;12.566;2022-07-04T11:57:45;5.00;;;1.10;;
37409;SDS011;23275;48.914;12.566;2022-07-04T12:00:13;3.13;;;1.15;;
37409;SDS011;23275;48.914;12.566;2022-07-04T12:02:49;2.20;;;1.05;;
37409;SDS011;23275;48.914;12.566;2022-07-04T12:05:16;6.95;;;1.33;;
37409;SDS011;23275;48.914;12.566;2022-07-04T12:07:43;2.22;;;0.82;;
37409;SDS011;23275;48.914;12.566;2022-07-04T12:10:22;1.90;;;1.13;;
37409;SDS011;23275;48.914;12.566;2022-07-04T12:15:44;3.45;;;1.40;;
37409;SDS011;23275;48.914;12.566;2022-07-04T12:18:15;2.83;;;1.20;;
37409;SDS011;23275;48.914;12.566;2022-07-04T12:20:42;6.88;;;1.23;;
37409;SDS011;23275;48.914;12.566;2022-07-04T12:23:08;4.45;;;0.98;;
37409;SDS011;23275;48.914;12.566;2022-07-04T12:25:38;2.38;;;1.10;;
37409;SDS011;23275;48.914;12.566;2022-07-04T12:30:31;4.20;;;1.05;;
37409;SDS011;23275;48.914;12.566;2022-07-04T12:33:21;2.97;;;0.93;;
37409;SDS011;23275;48.914;12.566;2022-07-04T12:41:02;3.55;;;1.17;;
37409;SDS011;23275;48.914;12.566;2022-07-04T12:46:09;4.88;;;1.00;;
37409;SDS011;23275;48.914;12.566;2022-07-04T12:48:36;4.90;;;1.25;;
37409;SDS011;23275;48.914;12.566;2022-07-04T12:51:12;2.33;;;0.90;;
37409;SDS011;23275;48.914;12.566;2022-07-04T12:53:40;4.82;;;0.95;;
37409;SDS011;23275;48.914;12.566;2022-07-04T12:56:08;2.78;;;1.10;;
37409;SDS011;23275;48.914;12.566;2022-07-04T12:58:34;3.50;;;0.98;;
37409;SDS011;23275;48.914;12.566;2022-07-04T13:01:01;2.75;;;0.70;;
37409;SDS011;23275;48.914;12.566;2022-07-04T13:03:27;2.00;;;0.82;;
37409;SDS011;23275;48.914;12.566;2022-07-04T13:05:54;4.15;;;0.90;;
37409;SDS011;23275;48.914;12.566;2022-07-04T13:08:22;5.78;;;0.80;;
37409;SDS011;23275;48.914;12.566;2022-07-04T13:10:48;3.72;;;1.15;;
37409;SDS011;23275;48.914;12.566;2022-07-04T13:13:33;1.90;;;0.90;;
37409;SDS011;23275;48.914;12.566;2022-07-04T13:15:59;5.22;;;0.90;;
37409;SDS011;23275;48.914;12.566;2022-07-04T13:18:25;1.02;;;0.70;;
37409;SDS011;23275;48.914;12.566;2022-07-04T13:20:51;4.95;;;0.80;;
37409;SDS011;23275;48.914;12.566;2022-07-04T13:23:16;1.25;;;0.80;;
37409;SDS011;23275;48.914;12.566;2022-07-04T13:25:42;3.67;;;0.90;;
37409;SDS011;23275;48.914;12.566;2022-07-04T13:28:07;2.20;;;0.90;;
37409;SDS011;23275;48.914;12.566;2022-07-04T13:30:33;1.60;;;0.80;;
37409;SDS011;23275;48.914;12.566;2022-07-04T13:32:58;5.28;;;1.50;;
37409;SDS011;23275;48.914;12.566;2022-07-04T13:35:24;1.70;;;0.88;;
37409;SDS011;23275;48.914;12.566;2022-07-04T13:37:50;2.22;;;0.95;;
37409;SDS011;23275;48.914;12.566;2022-07-04T13:40:15;2.40;;;1.25;;
37409;SDS011;23275;48.914;12.566;2022-07-04T13:42:41;4.40;;;0.93;;
37409;SDS011;23275;48.914;12.566;2022-07-04T13:45:22;2.95;;;0.95;;
37409;SDS011;23275;48.914;12.566;2022-07-04T13:47:48;4.38;;;1.00;;
37409;SDS011;23275;48.914;12.566;2022-07-04T13:50:13;1.92;;;0.93;;
37409;SDS011;23275;48.914;12.566;2022-07-04T13:52:39;1.98;;;1.10;;
37409;SDS011;23275;48.914;12.566;2022-07-04T13:55:04;2.58;;;1.20;;
37409;SDS011;23275;48.914;12.566;2022-07-04T13:57:30;2.45;;;1.00;;
37409;SDS011;23275;48.914;12.566;2022-07-04T13:59:56;3.33;;;1.10;;
37409;SDS011;23275;48.914;12.566;2022-07-04T14:02:22;1.80;;;0.80;;
37409;SDS011;23275;48.914;12.566;2022-07-04T14:04:48;7.15;;;1.10;;
37409;SDS011;23275;48.914;12.566;2022-07-04T14:07:13;8.98;;;1.20;;
37409;SDS011;23275;48.914;12.566;2022-07-04T14:09:39;2.10;;;0.90;;
37409;SDS011;23275;48.914;12.566;2022-07-04T14:12:05;2.20;;;1.05;;
37409;SDS011;23275;48.914;12.566;2022-07-04T14:14:31;2.75;;;0.90;;
37409;SDS011;23275;48.914;12.566;2022-07-04T14:16:56;4.38;;;0.93;;
37409;SDS011;23275;48.914;12.566;2022-07-04T14:19:22;3.85;;;1.08;;
37409;SDS011;23275;48.914;12.566;2022-07-04T14:21:48;2.97;;;1.02;;
37409;SDS011;23275;48.914;12.566;2022-07-04T14:24:14;2.47;;;0.93;;
37409;SDS011;23275;48.914;12.566;2022-07-04T14:26:39;3.42;;;1.23;;
37409;SDS011;23275;48.914;12.566;2022-07-04T14:29:07;3.33;;;1.27;;
37409;SDS011;23275;48.914;12.566;2022-07-04T14:31:33;3.17;;;0.90;;
37409;SDS011;23275;48.914;12.566;2022-07-04T14:33:58;4.53;;;0.80;;
37409;SDS011;23275;48.914;12.566;2022-07-04T14:36:24;2.15;;;0.85;;
37409;SDS011;23275;48.914;12.566;2022-07-04T14:38:50;4.85;;;0.88;;
37409;SDS011;23275;48.914;12.566;2022-07-04T14:41:15;3.20;;;0.80;;
37409;SDS011;23275;48.914;12.566;2022-07-04T14:43:42;3.53;;;1.00;;
37409;SDS011;23275;48.914;12.566;2022-07-04T14:46:09;1.80;;;0.80;;
37409;SDS011;23275;48.914;12.566;2022-07-04T14:48:35;2.80;;;1.25;;
37409;SDS011;23275;48.914;12.566;2022-07-04T14:51:02;2.90;;;0.90;;
37409;SDS011;23275;48.914;12.566;2022-07-04T14:53:28;2.22;;;0.82;;
37409;SDS011;23275;48.914;12.566;2022-07-04T14:55:54;3.25;;;1.00;;
37409;SDS011;23275;48.914;12.566;2022-07-04T14:58:20;2.80;;;1.00;;
37409;SDS011;23275;48.914;12.566;2022-07-04T15:00:46;6.18;;;1.27;;
37409;SDS011;23275;48.914;12.566;2022-07-04T15:03:12;2.88;;;1.13;;